createdAt,value
2023-02-01T00:01:07.256Z,5.40
2023-02-01T00:03:34.042Z,5.40
2023-02-01T00:06:01.866Z,5.30
2023-02-01T00:08:29.042Z,5.40
2023-02-01T00:11:08.671Z,5.40
2023-02-01T00:13:41.099Z,5.60
2023-02-01T00:16:20.305Z,5.40
2023-02-01T00:18:48.857Z,5.30
2023-02-01T00:21:19.063Z,5.40
2023-02-01T00:23:46.263Z,5.20
2023-02-01T00:26:23.331Z,5.20
2023-02-01T00:28:50.053Z,5.20
2023-02-01T00:31:17.075Z,5.20
2023-02-01T00:33:43.936Z,5.50
2023-02-01T00:36:11.241Z,5.40
2023-02-01T00:38:39.527Z,5.40
2023-02-01T00:41:11.228Z,5.40
2023-02-01T00:43:38.135Z,5.40
2023-02-01T00:46:05.109Z,5.30
2023-02-01T00:48:32.629Z,5.30
2023-02-01T00:51:05.488Z,5.30
2023-02-01T00:53:33.371Z,5.50
2023-02-01T00:56:00.550Z,5.40
2023-02-01T00:58:28.139Z,5.40
2023-02-01T01:01:19.154Z,5.40
2023-02-01T01:04:00.650Z,5.30
2023-02-01T01:06:29.855Z,5.40
2023-02-01T01:08:58.861Z,5.30
2023-02-01T01:11:30.262Z,5.20
2023-02-01T01:13:58.191Z,5.10
2023-02-01T01:16:27.972Z,5.10
2023-02-01T01:18:55.898Z,5.20
2023-02-01T01:21:24.633Z,5.20
2023-02-01T01:23:51.771Z,5.10
2023-02-01T01:26:25.203Z,5.50
2023-02-01T01:28:53.404Z,5.40
2023-02-01T01:31:21.448Z,5.30
2023-02-01T01:33:54.527Z,5.40
2023-02-01T01:36:22.171Z,5.10
2023-02-01T01:38:49.161Z,5.10
2023-02-01T01:41:26.058Z,5.10
2023-02-01T01:44:06.577Z,5.20
2023-02-01T01:46:38.537Z,5.00
2023-02-01T01:49:11.067Z,5.30
2023-02-01T01:51:47.355Z,5.20
2023-02-01T01:54:36.179Z,5.30
2023-02-01T01:57:12.298Z,5.30
2023-02-01T01:59:42.483Z,5.40
2023-02-01T02:02:09.455Z,5.20
2023-02-01T02:04:37.459Z,5.20
2023-02-01T02:07:13.072Z,5.00
2023-02-01T02:09:45.458Z,5.20
2023-02-01T02:12:14.927Z,5.10
2023-02-01T02:14:41.971Z,5.40
2023-02-01T02:17:29.730Z,5.30
2023-02-01T02:20:27.634Z,5.10
2023-02-01T02:23:17.455Z,5.10
2023-02-01T02:26:24.672Z,5.10
2023-02-01T02:29:26.725Z,5.00
2023-02-01T02:32:36.295Z,5.30
2023-02-01T02:35:45.943Z,5.10
2023-02-01T02:38:48.124Z,4.90
2023-02-01T02:41:41.785Z,5.00
2023-02-01T02:44:54.917Z,5.00
2023-02-01T02:47:44.165Z,5.00
2023-02-01T02:51:03.190Z,4.90
2023-02-01T02:54:00.715Z,5.00
2023-02-01T02:56:47.416Z,5.00
2023-02-01T02:59:39.711Z,4.90
2023-02-01T03:02:26.552Z,5.00
2023-02-01T03:04:57.670Z,4.80
2023-02-01T03:08:03.397Z,4.90
2023-02-01T03:10:45.367Z,4.90
2023-02-01T03:13:39.612Z,4.90
2023-02-01T03:16:35.690Z,4.80
2023-02-01T03:19:23.395Z,4.90
2023-02-01T03:24:37.285Z,4.80
2023-02-01T03:27:16.326Z,4.80
2023-02-01T03:29:51.009Z,4.90
2023-02-01T03:32:18.805Z,4.90
2023-02-01T03:34:46.509Z,4.90
2023-02-01T03:37:22.290Z,5.00
2023-02-01T03:40:01.716Z,5.00
2023-02-01T03:42:49.665Z,5.00
2023-02-01T03:45:34.650Z,5.00
2023-02-01T03:48:02.668Z,4.90
2023-02-01T03:50:31.444Z,5.10
2023-02-01T03:53:08.170Z,4.90
2023-02-01T03:55:36.969Z,4.80
2023-02-01T03:58:19.407Z,4.90
2023-02-01T04:00:58.536Z,4.80
2023-02-01T04:03:26.749Z,5.40
2023-02-01T04:05:54.906Z,4.80
2023-02-01T04:08:24.535Z,4.70
2023-02-01T04:10:51.437Z,5.20
2023-02-01T04:13:18.263Z,4.80
2023-02-01T04:15:46.581Z,4.80
2023-02-01T04:18:13.378Z,4.70
2023-02-01T04:20:40.254Z,4.90
2023-02-01T04:23:07.040Z,4.90
2023-02-01T04:25:33.876Z,4.90
2023-02-01T04:28:00.651Z,4.80
2023-02-01T04:30:27.460Z,4.70
2023-02-01T04:32:54.210Z,4.50
2023-02-01T04:35:21.075Z,4.80
2023-02-01T04:37:47.836Z,4.90
2023-02-01T04:40:14.712Z,4.90
2023-02-01T04:42:42.098Z,4.70
2023-02-01T04:45:09.892Z,4.50
2023-02-01T04:47:36.854Z,4.50
2023-02-01T04:50:04.186Z,4.60
2023-02-01T04:52:30.970Z,4.50
2023-02-01T04:55:00.150Z,4.80
2023-02-01T04:57:27.282Z,4.50
2023-02-01T04:59:54.041Z,5.30
2023-02-01T05:02:20.986Z,5.30
2023-02-01T05:04:47.804Z,5.20
2023-02-01T05:07:14.656Z,5.50
2023-02-01T05:09:41.475Z,5.00
2023-02-01T05:12:29.094Z,4.60
2023-02-01T05:14:55.826Z,4.40
2023-02-01T05:17:22.586Z,5.00
2023-02-01T05:19:49.407Z,4.70
2023-02-01T05:22:16.263Z,4.30
2023-02-01T05:24:43.044Z,4.30
2023-02-01T05:27:09.840Z,4.60
2023-02-01T05:29:36.673Z,4.40
2023-02-01T05:32:20.571Z,4.40
2023-02-01T05:34:48.667Z,4.50
2023-02-01T05:37:15.426Z,4.50
2023-02-01T05:39:42.188Z,4.30
2023-02-01T05:42:09.302Z,4.20
2023-02-01T05:44:36.074Z,5.00
2023-02-01T05:47:02.828Z,4.30
2023-02-01T05:49:29.639Z,4.50
2023-02-01T05:51:57.989Z,4.80
2023-02-01T05:54:25.600Z,4.60
2023-02-01T05:56:52.363Z,4.40
2023-02-01T05:59:19.128Z,4.30
2023-02-01T06:01:45.894Z,4.30
2023-02-01T06:04:12.863Z,4.40
2023-02-01T06:06:39.794Z,4.20
2023-02-01T06:09:06.683Z,4.10
2023-02-01T06:11:33.590Z,4.00
2023-02-01T06:14:00.931Z,4.10
2023-02-01T06:16:28.236Z,4.70
2023-02-01T06:18:55.118Z,4.20
2023-02-01T06:21:25.216Z,4.30
2023-02-01T06:23:53.687Z,4.00
2023-02-01T06:26:20.988Z,4.40
2023-02-01T06:28:47.855Z,4.80
2023-02-01T06:31:14.762Z,4.20
2023-02-01T06:33:41.736Z,4.20
2023-02-01T06:36:11.068Z,4.50
2023-02-01T06:38:37.965Z,4.60
2023-02-01T06:41:05.302Z,4.60
2023-02-01T06:43:33.615Z,4.60
2023-02-01T06:46:03.159Z,4.60
2023-02-01T06:48:30.843Z,4.30
2023-02-01T06:50:57.803Z,4.30
2023-02-01T06:53:24.851Z,4.40
2023-02-01T06:56:01.844Z,4.80
2023-02-01T06:58:33.200Z,4.80
2023-02-01T07:01:10.231Z,4.30
2023-02-01T07:03:37.997Z,4.30
2023-02-01T07:06:05.775Z,4.20
2023-02-01T07:08:36.438Z,4.30
2023-02-01T07:11:13.308Z,4.30
2023-02-01T07:13:40.858Z,4.40
2023-02-01T07:16:14.758Z,4.20
2023-02-01T07:18:41.686Z,4.20
2023-02-01T07:21:09.077Z,4.30
2023-02-01T07:23:35.876Z,4.20
2023-02-01T07:26:05.620Z,4.20
2023-02-01T07:28:35.861Z,4.90
2023-02-01T07:31:11.785Z,4.30
2023-02-01T07:33:38.678Z,4.30
2023-02-01T07:36:08.437Z,4.30
2023-02-01T07:38:35.569Z,4.00
2023-02-01T07:41:05.832Z,4.00
2023-02-01T07:43:36.667Z,4.00
2023-02-01T07:46:05.395Z,4.00
2023-02-01T07:48:34.638Z,4.20
2023-02-01T07:51:17.169Z,4.10
2023-02-01T07:53:44.977Z,4.50
2023-02-01T07:56:20.363Z,4.60
2023-02-01T07:58:56.860Z,4.50
2023-02-01T08:01:26.347Z,4.90
2023-02-01T08:04:02.034Z,4.50
2023-02-01T08:06:32.625Z,4.60
2023-02-01T08:08:59.632Z,4.30
2023-02-01T08:11:27.134Z,4.50
2023-02-01T08:13:54.699Z,4.30
2023-02-01T08:16:23.990Z,4.30
2023-02-01T08:18:51.475Z,4.60
2023-02-01T08:21:28.562Z,4.40
2023-02-01T08:23:57.214Z,5.00
2023-02-01T08:26:26.876Z,4.80
2023-02-01T08:28:58.111Z,5.10
2023-02-01T08:31:28.184Z,4.90
2023-02-01T08:33:57.977Z,4.60
2023-02-01T08:36:26.395Z,5.10
2023-02-01T08:38:53.219Z,5.00
2023-02-01T08:41:24.277Z,4.60
2023-02-01T08:43:51.848Z,4.30
2023-02-01T08:46:18.906Z,4.50
2023-02-01T08:48:48.107Z,4.50
2023-02-01T08:51:17.488Z,4.40
2023-02-01T08:53:45.107Z,4.50
2023-02-01T08:56:14.395Z,4.60
2023-02-01T08:58:41.507Z,4.50
2023-02-01T09:01:13.506Z,4.70
2023-02-01T09:03:41.073Z,4.80
2023-02-01T09:06:12.667Z,4.40
2023-02-01T09:08:40.765Z,4.60
2023-02-01T09:11:13.840Z,4.90
2023-02-01T09:13:40.705Z,4.60
2023-02-01T09:16:07.593Z,4.60
2023-02-01T09:18:34.376Z,4.60
2023-02-01T09:21:08.518Z,4.70
2023-02-01T09:23:35.940Z,4.80
2023-02-01T09:26:06.302Z,4.70
2023-02-01T09:28:33.193Z,4.80
2023-02-01T09:31:02.175Z,5.20
2023-02-01T09:33:29.917Z,4.80
2023-02-01T09:36:01.959Z,5.00
2023-02-01T09:38:29.412Z,4.90
2023-02-01T09:40:57.533Z,4.90
2023-02-01T09:43:30.080Z,5.00
2023-02-01T09:46:32.048Z,5.00
2023-02-01T09:49:05.543Z,5.10
2023-02-01T09:51:39.909Z,5.50
2023-02-01T09:54:29.994Z,5.40
2023-02-01T09:57:05.268Z,5.40
2023-02-01T09:59:45.800Z,5.10
2023-02-01T10:02:18.706Z,5.20
2023-02-01T10:04:47.826Z,5.30
2023-02-01T10:07:26.563Z,5.40
2023-02-01T10:10:05.172Z,5.10
2023-02-01T10:13:18.367Z,5.30
2023-02-01T10:16:10.782Z,5.10
2023-02-01T10:19:26.150Z,5.10
2023-02-01T10:22:01.978Z,5.30
2023-02-01T10:24:47.996Z,5.60
2023-02-01T10:27:21.605Z,5.30
2023-02-01T10:30:04.678Z,5.40
2023-02-01T10:32:35.672Z,5.60
2023-02-01T10:35:34.582Z,5.40
2023-02-01T10:38:03.671Z,5.40
2023-02-01T10:40:30.595Z,5.90
2023-02-01T10:43:02.869Z,5.80
2023-02-01T10:45:33.663Z,5.40
2023-02-01T10:48:03.642Z,5.60
2023-02-01T10:50:41.385Z,5.60
2023-02-01T10:53:28.857Z,5.60
2023-02-01T10:55:56.843Z,6.10
2023-02-01T10:58:33.503Z,5.90
2023-02-01T11:01:18.083Z,6.10
2023-02-01T11:03:59.456Z,5.80
2023-02-01T11:06:36.773Z,5.90
2023-02-01T11:09:09.421Z,6.00
2023-02-01T11:11:48.338Z,5.90
2023-02-01T11:14:19.573Z,6.10
2023-02-01T11:16:56.028Z,5.90
2023-02-01T11:19:22.834Z,6.00
2023-02-01T11:21:56.723Z,5.90
2023-02-01T11:24:33.796Z,7.20
2023-02-01T11:27:05.866Z,6.30
2023-02-01T11:29:39.777Z,6.40
2023-02-01T11:32:09.393Z,6.10
2023-02-01T11:34:42.762Z,6.20
2023-02-01T11:37:24.837Z,6.20
2023-02-01T11:40:19.054Z,6.10
2023-02-01T11:43:02.585Z,6.50
2023-02-01T11:45:38.577Z,6.20
2023-02-01T11:48:26.158Z,6.10
2023-02-01T11:51:11.687Z,6.10
2023-02-01T11:53:58.343Z,6.40
2023-02-01T11:56:38.704Z,6.30
2023-02-01T11:59:24.143Z,6.50
2023-02-01T12:02:27.811Z,6.70
2023-02-01T12:05:25.651Z,6.40
2023-02-01T12:08:10.309Z,6.30
2023-02-01T12:10:57.837Z,6.30
2023-02-01T12:13:36.920Z,6.50
2023-02-01T12:16:16.888Z,6.70
2023-02-01T12:19:07.148Z,6.60
2023-02-01T12:22:17.293Z,6.60
2023-02-01T12:25:08.388Z,6.70
2023-02-01T12:28:08.117Z,6.70
2023-02-01T12:30:59.734Z,6.60
2023-02-01T12:33:58.746Z,6.90
2023-02-01T12:36:40.629Z,7.00
2023-02-01T12:39:39.506Z,6.60
2023-02-01T12:42:30.530Z,7.00
2023-02-01T12:45:16.889Z,6.80
2023-02-01T12:47:53.660Z,6.80
2023-02-01T12:50:44.879Z,6.90
2023-02-01T12:53:39.154Z,7.00
2023-02-01T12:56:14.426Z,6.80
2023-02-01T12:58:49.840Z,6.70
2023-02-01T13:01:31.653Z,6.80
2023-02-01T13:04:12.549Z,6.70
2023-02-01T13:06:59.916Z,6.80
2023-02-01T13:09:55.128Z,6.70
2023-02-01T13:12:36.234Z,6.80
2023-02-01T13:15:13.999Z,7.00
2023-02-01T13:17:42.431Z,6.80
2023-02-01T13:20:30.928Z,6.50
2023-02-01T13:23:32.455Z,6.60
2023-02-01T13:25:59.913Z,6.50
2023-02-01T13:28:52.396Z,6.50
2023-02-01T13:31:49.951Z,6.50
2023-02-01T13:35:03.562Z,6.70
2023-02-01T13:38:04.493Z,7.00
2023-02-01T13:40:40.530Z,6.70
2023-02-01T13:43:30.195Z,6.60
2023-02-01T13:46:06.110Z,6.70
2023-02-01T13:48:55.332Z,6.60
2023-02-01T13:51:42.901Z,6.50
2023-02-01T13:54:33.537Z,6.70
2023-02-01T13:57:02.138Z,6.70
2023-02-01T13:59:41.061Z,6.70
2023-02-01T14:02:39.111Z,6.60
2023-02-01T14:05:24.781Z,6.60
2023-02-01T14:08:10.438Z,6.70
2023-02-01T14:10:49.094Z,6.70
2023-02-01T14:13:33.375Z,6.70
2023-02-01T14:16:06.690Z,6.60
2023-02-01T14:18:36.271Z,6.70
2023-02-01T14:21:32.032Z,6.60
2023-02-01T14:24:26.209Z,6.70
2023-02-01T14:26:59.174Z,6.80
2023-02-01T14:29:35.683Z,6.80
2023-02-01T14:32:14.269Z,6.80
2023-02-01T14:34:58.040Z,6.70
2023-02-01T14:37:28.230Z,6.60
2023-02-01T14:40:03.060Z,6.60
2023-02-01T14:42:42.343Z,6.70
2023-02-01T14:45:24.875Z,6.60
2023-02-01T14:47:55.956Z,6.60
2023-02-01T14:50:41.235Z,6.60
2023-02-01T14:53:11.283Z,6.50
2023-02-01T14:56:05.147Z,6.70
2023-02-01T14:59:02.675Z,6.50
2023-02-01T15:01:33.874Z,6.50
2023-02-01T15:04:12.993Z,6.50
2023-02-01T15:06:45.312Z,6.50
2023-02-01T15:09:24.975Z,6.60
2023-02-01T15:12:12.808Z,6.60
2023-02-01T15:14:50.264Z,6.50
2023-02-01T15:17:27.839Z,6.40
2023-02-01T15:20:04.953Z,6.40
2023-02-01T15:22:35.916Z,6.50
2023-02-01T15:25:04.105Z,6.50
2023-02-01T15:27:33.039Z,6.60
2023-02-01T15:30:27.542Z,6.50
2023-02-01T15:33:14.907Z,7.00
2023-02-01T15:35:54.194Z,6.70
2023-02-01T15:38:28.151Z,6.90
2023-02-01T15:41:17.692Z,6.50
2023-02-01T15:43:56.617Z,6.70
2023-02-01T15:46:33.120Z,6.40
2023-02-01T15:49:00.243Z,6.60
2023-02-01T15:51:33.503Z,6.50
2023-02-01T15:54:05.913Z,6.50
2023-02-01T15:56:38.812Z,6.50
2023-02-01T15:59:15.918Z,6.40
2023-02-01T16:01:43.435Z,6.90
2023-02-01T16:04:24.149Z,6.60
2023-02-01T16:06:52.475Z,6.40
2023-02-01T16:09:28.178Z,6.30
2023-02-01T16:12:01.786Z,6.30
2023-02-01T16:14:29.205Z,6.40
2023-02-01T16:16:59.119Z,6.30
2023-02-01T16:19:29.095Z,6.30
2023-02-01T16:21:57.356Z,6.30
2023-02-01T16:24:26.759Z,6.50
2023-02-01T16:26:53.652Z,6.60
2023-02-01T16:29:22.395Z,6.50
2023-02-01T16:31:51.188Z,6.40
2023-02-01T16:34:18.774Z,6.30
2023-02-01T16:36:52.832Z,6.40
2023-02-01T16:39:21.369Z,6.40
2023-02-01T16:41:48.415Z,6.40
2023-02-01T16:44:15.193Z,6.40
2023-02-01T16:46:47.337Z,6.40
2023-02-01T16:49:26.653Z,6.40
2023-02-01T16:51:58.048Z,6.50
2023-02-01T16:54:24.849Z,6.30
2023-02-01T16:56:51.683Z,6.20
2023-02-01T16:59:18.548Z,6.30
2023-02-01T17:01:45.370Z,6.30
2023-02-01T17:04:12.569Z,6.70
2023-02-01T17:06:40.265Z,6.30
2023-02-01T17:09:07.739Z,6.40
2023-02-01T17:11:34.843Z,6.20
2023-02-01T17:14:21.019Z,6.40
2023-02-01T17:16:50.275Z,6.20
2023-02-01T17:19:24.280Z,6.30
2023-02-01T17:21:56.489Z,6.30
2023-02-01T17:24:42.478Z,6.30
2023-02-01T17:27:16.164Z,6.40
2023-02-01T17:29:43.757Z,6.20
2023-02-01T17:32:20.351Z,6.20
2023-02-01T17:34:48.264Z,6.70
2023-02-01T17:37:36.497Z,6.50
2023-02-01T17:40:03.976Z,6.20
2023-02-01T17:42:31.325Z,6.20
2023-02-01T17:45:47.446Z,6.30
2023-02-01T17:48:14.353Z,6.20
2023-02-01T17:50:41.265Z,6.50
2023-02-01T17:53:09.929Z,6.40
2023-02-01T17:55:41.923Z,6.50
2023-02-01T17:58:14.738Z,6.30
2023-02-01T18:00:43.111Z,6.30
2023-02-01T18:03:32.888Z,6.20
2023-02-01T18:06:01.409Z,6.30
2023-02-01T18:08:33.211Z,6.10
2023-02-01T18:11:01.975Z,6.20
2023-02-01T18:13:31.107Z,6.20
2023-02-01T18:16:03.551Z,6.30
2023-02-01T18:18:33.347Z,5.90
2023-02-01T18:21:00.521Z,6.10
2023-02-01T18:23:27.324Z,6.10
2023-02-01T18:25:54.119Z,6.10
2023-02-01T18:28:21.086Z,6.10
2023-02-01T18:30:51.475Z,6.00
2023-02-01T18:33:21.012Z,6.50
2023-02-01T18:35:49.013Z,6.10
2023-02-01T18:38:16.159Z,6.20
2023-02-01T18:40:53.261Z,6.10
2023-02-01T18:43:21.279Z,6.20
2023-02-01T18:45:49.895Z,6.10
2023-02-01T18:48:19.435Z,6.00
2023-02-01T18:50:46.649Z,5.90
2023-02-01T18:53:19.995Z,5.80
2023-02-01T18:55:48.052Z,6.00
2023-02-01T18:58:17.272Z,6.00
2023-02-01T19:00:45.882Z,6.00
2023-02-01T19:03:14.741Z,6.00
2023-02-01T19:05:42.398Z,5.90
2023-02-01T19:08:09.606Z,5.90
2023-02-01T19:10:38.644Z,5.80
2023-02-01T19:13:05.672Z,5.90
2023-02-01T19:15:34.671Z,5.70
2023-02-01T19:18:01.977Z,5.90
2023-02-01T19:20:28.796Z,5.90
2023-02-01T19:22:55.599Z,5.80
2023-02-01T19:25:29.963Z,6.00
2023-02-01T19:27:57.074Z,5.80
2023-02-01T19:30:25.075Z,5.90
2023-02-01T19:32:52.349Z,5.90
2023-02-01T19:35:21.607Z,5.90
2023-02-01T19:37:49.155Z,5.90
2023-02-01T19:40:19.458Z,5.80
2023-02-01T19:42:47.365Z,5.90
2023-02-01T19:45:15.348Z,5.90
2023-02-01T19:47:42.635Z,5.80
2023-02-01T19:50:16.821Z,6.10
2023-02-01T19:52:43.571Z,5.80
2023-02-01T19:55:10.315Z,5.60
2023-02-01T19:57:37.143Z,5.60
2023-02-01T20:00:06.650Z,5.90
2023-02-01T20:02:32.733Z,6.00
2023-02-01T20:04:59.892Z,5.70
2023-02-01T20:07:26.689Z,6.10
2023-02-01T20:09:53.465Z,5.70
2023-02-01T20:12:20.253Z,6.00
2023-02-01T20:14:47.021Z,5.80
2023-02-01T20:17:15.633Z,5.80
2023-02-01T20:19:42.462Z,5.70
2023-02-01T20:22:09.469Z,5.70
2023-02-01T20:24:36.310Z,5.70
2023-02-01T20:27:03.976Z,5.70
2023-02-01T20:29:30.804Z,5.60
2023-02-01T20:31:57.735Z,5.70
2023-02-01T20:34:24.519Z,5.70
2023-02-01T20:36:51.260Z,5.60
2023-02-01T20:39:18.121Z,5.60
2023-02-01T20:41:44.911Z,5.70
2023-02-01T20:44:11.736Z,5.60
2023-02-01T20:46:38.500Z,5.70
2023-02-01T20:49:05.505Z,5.80
2023-02-01T20:51:32.298Z,5.80
2023-02-01T20:53:59.067Z,5.70
2023-02-01T20:56:25.868Z,5.70
2023-02-01T20:58:52.670Z,5.60
2023-02-01T21:01:19.528Z,5.60
2023-02-01T21:03:46.303Z,5.50
2023-02-01T21:06:13.681Z,5.70
2023-02-01T21:08:41.419Z,5.80
2023-02-01T21:11:13.284Z,5.50
2023-02-01T21:13:50.497Z,5.60
2023-02-01T21:16:20.859Z,5.40
2023-02-01T21:18:52.134Z,5.40
2023-02-01T21:21:19.327Z,5.50
2023-02-01T21:23:46.197Z,5.40
2023-02-01T21:26:15.807Z,5.40
2023-02-01T21:28:42.821Z,5.40
2023-02-01T21:31:09.827Z,5.60
2023-02-01T21:33:39.204Z,5.50
2023-02-01T21:36:07.072Z,5.40
2023-02-01T21:38:34.433Z,5.50
2023-02-01T21:41:19.952Z,5.30
2023-02-01T21:43:46.928Z,5.70
2023-02-01T21:46:13.763Z,5.60
2023-02-01T21:49:05.278Z,5.70
2023-02-01T21:51:28.900Z,5.50
2023-02-01T21:53:56.297Z,5.50
2023-02-01T21:56:24.378Z,5.60
2023-02-01T21:58:51.285Z,5.50
2023-02-01T22:01:18.242Z,5.90
2023-02-01T22:03:45.151Z,5.40
2023-02-01T22:06:36.541Z,5.30
2023-02-01T22:09:04.508Z,5.50
2023-02-01T22:11:31.830Z,5.50
2023-02-01T22:13:58.690Z,5.50
2023-02-01T22:16:25.528Z,5.50
2023-02-01T22:18:53.577Z,5.40
2023-02-01T22:21:21.520Z,5.90
2023-02-01T22:23:57.467Z,5.40
2023-02-01T22:26:24.556Z,5.30
2023-02-01T22:28:53.023Z,5.10
2023-02-01T22:31:20.878Z,5.40
2023-02-01T22:33:49.953Z,5.30
2023-02-01T22:36:17.873Z,5.30
2023-02-01T22:38:46.536Z,5.40
2023-02-01T22:41:13.753Z,5.40
2023-02-01T22:43:41.434Z,5.40
2023-02-01T22:46:13.773Z,5.30
2023-02-01T22:48:43.356Z,5.30
2023-02-01T22:51:24.879Z,5.30
2023-02-01T22:53:57.994Z,5.30
2023-02-01T22:56:38.302Z,5.30
2023-02-01T22:59:07.828Z,5.50
2023-02-01T23:01:35.273Z,5.40
2023-02-01T23:04:05.833Z,5.50
2023-02-01T23:06:33.631Z,5.40
2023-02-01T23:09:05.435Z,5.30
2023-02-01T23:11:32.186Z,5.40
2023-02-01T23:13:58.978Z,5.30
2023-02-01T23:16:25.883Z,5.40
2023-02-01T23:18:52.646Z,5.40
2023-02-01T23:21:23.141Z,5.70
2023-02-01T23:23:55.294Z,5.30
2023-02-01T23:26:25.709Z,5.70
2023-02-01T23:28:55.250Z,5.70
2023-02-01T23:31:26.533Z,5.50
2023-02-01T23:33:56.792Z,5.60
2023-02-01T23:36:26.606Z,5.70
2023-02-01T23:38:53.526Z,5.30
2023-02-01T23:41:22.291Z,5.30
2023-02-01T23:43:58.346Z,5.50
2023-02-01T23:46:34.383Z,5.40
2023-02-01T23:49:03.338Z,5.40
2023-02-01T23:51:31.015Z,5.40
2023-02-01T23:53:58.543Z,5.50
2023-02-01T23:56:33.222Z,5.40
2023-02-01T23:59:03.018Z,5.40
